Latest Weather Observations for Hervey Bay

IDQ60801

Issued at 4:32 am EST Sunday 7 February 2016 (issued every 30 minutes, with the page automatically refreshed every 10 minutes)

About weather observations | Map of weather stations | Latest weather observations for QLD | Other Formats
Station Details ID: 040405 Name: HERVEY BAY AIRPORT Lat: -25.32 Lon: 152.88 Height: 12.98 m
Data from the previous 72 hours. | See also: Recent months at Hervey Bay
Date/Time
EST
Temp
°C
App
Temp
°C
Dew
Point
Rel
Hum
%
Delta-T
°C
Wind Press
QNH
hPa
Press
MSL
hPa
Rain
since 9 am
mm
Dir
 
Spd
km/h
Gust
km/h
Spd
kts
Gust
kts
07/04:30am 24.2 27.0 21.5 85 1.8 SSE 9 13 5 7 1009.4 1009.3 3.0
07/04:00am 24.2 27.1 21.1 83 2.0 SE 7 13 4 7 1009.3 1009.2 3.0
07/03:30am 24.2 25.9 20.9 82 2.2 SE 13 28 7 15 1009.1 1009.0 3.0
07/03:00am 24.5 27.1 21.2 82 2.2 SE 9 13 5 7 1009.1 1009.0 3.0
07/02:30am 24.7 26.3 20.8 79 2.6 SE 13 19 7 10 1009.0 1008.9 3.0
07/02:00am 24.8 26.4 20.7 78 2.7 SE 13 22 7 12 1009.2 1009.1 3.0
07/01:30am 24.9 27.0 21.0 79 2.6 SE 11 17 6 9 1009.4 1009.3 3.0
07/01:00am 25.0 27.2 21.1 79 2.6 SE 11 20 6 11 1009.7 1009.6 3.0
07/12:30am 25.1 26.5 21.0 78 2.7 SE 15 24 8 13 1009.9 1009.8 3.0
07/12:00am 25.0 26.8 21.1 79 2.6 SE 13 22 7 12 1010.3 1010.2 3.0
 
Date/Time
EST
Temp
°C
App
Temp
°C
Dew
Point
Rel
Hum
%
Delta-T
°C
Wind Press
QNH
hPa
Press
MSL
hPa
Rain
since 9 am
mm
Dir
 
Spd
km/h
Gust
km/h
Spd
kts
Gust
kts
06/11:30pm 25.0 25.8 20.7 77 2.8 SE 17 24 9 13 1010.7 1010.6 3.0
06/11:00pm 25.1 26.7 20.8 77 2.8 SSE 13 22 7 12 1010.8 1010.7 3.0
06/10:30pm 24.6 26.9 21.3 82 2.2 SSE 11 20 6 11 1010.9 1010.8 3.0
06/10:00pm 24.3 26.7 21.6 85 1.8 SSE 11 20 6 11 1010.9 1010.8 3.0
06/09:30pm 24.4 26.3 21.3 83 2.0 SE 13 20 7 11 1010.9 1010.8 3.0
06/09:00pm 24.0 25.4 21.1 84 1.9 SE 15 24 8 13 1010.9 1010.8 3.0
06/08:30pm 23.9 24.3 20.6 82 2.2 SE 19 26 10 14 1010.7 1010.6 3.0
06/08:00pm 23.8 24.6 20.7 83 2.0 SE 17 28 9 15 1010.3 1010.2 3.0
06/07:30pm 24.1 25.2 21.2 84 1.9 SE 17 28 9 15 1009.8 1009.7 3.0
06/07:00pm 23.9 23.7 21.2 85 1.8 SE 24 46 13 25 1009.4 1009.3 3.0
06/06:30pm 24.3 25.2 21.6 85 1.8 SE 19 30 10 16 1008.9 1008.8 3.0
06/06:00pm 24.1 25.5 21.8 87 1.5 SE 17 28 9 15 1008.6 1008.5 3.0
06/05:30pm 25.2 26.1 21.5 80 2.5 SE 19 30 10 16 1008.1 1008.0 3.0
06/05:00pm 25.0 26.0 21.7 82 2.2 SE 19 32 10 17 1007.8 1007.7 3.0
06/04:30pm 25.1 26.0 21.6 81 2.3 SE 19 28 10 15 1007.4 1007.3 3.0
06/04:00pm 24.8 25.8 21.7 83 2.1 SE 19 35 10 19 1007.3 1007.2 3.0
06/03:30pm 24.6 25.5 21.5 83 2.1 SE 19 28 10 15 1007.5 1007.4 2.6
06/03:00pm 24.9 25.6 21.6 82 2.2 SE 20 33 11 18 1007.5 1007.4 2.4
06/02:30pm 24.5 26.0 22.0 86 1.7 SE 17 35 9 19 1007.6 1007.5 2.4
06/02:00pm 24.4 25.6 22.1 87 1.5 SE 19 28 10 15 1007.8 1007.7 2.2
06/01:30pm 26.2 26.1 20.8 72 3.6 SE 22 35 12 19 1007.9 1007.8 2.0
06/01:00pm 26.1 26.7 21.3 75 3.2 SE 20 35 11 19 1008.1 1008.0 2.0
06/12:38pm 25.5 24.4 21.0 76 3.0 SE 28 46 15 25 1008.3 1008.2 2.0
06/12:30pm 26.6 26.8 21.4 73 3.5 SE 22 41 12 22 1008.2 1008.1 2.0
06/12:00pm 26.8 27.0 21.3 72 3.7 SE 22 33 12 18 1008.4 1008.3 2.0
06/11:30am 26.7 27.7 22.1 76 3.1 SE 20 37 11 20 1008.6 1008.5 2.0
06/11:00am 26.5 27.8 22.6 79 2.6 SE 20 32 11 17 1008.7 1008.6 2.0
06/10:30am 26.0 28.3 22.7 82 2.2 SE 15 26 8 14 1008.9 1008.8 2.0
06/10:00am 25.5 27.9 23.0 86 1.7 SE 15 24 8 13 1009.1 1009.0 2.0
06/09:30am 24.5 26.4 22.8 90 1.1 SSE 17 32 9 17 1009.1 1009.0 2.0
06/09:27am 24.4 26.7 22.7 90 1.1 SSE 15 26 8 14 1009.2 1009.1 2.0
06/09:07am 24.2 25.9 22.3 89 1.3 SE 17 28 9 15 1009.3 1009.2 1.6
06/09:00am 24.9 26.8 22.8 88 1.4 SE 17 28 9 15 1009.1 1009.0 11.4
06/08:30am 24.2 25.9 22.3 89 1.3 SSE 17 24 9 13 1009.1 1009.0 11.4
06/08:00am 24.6 26.9 22.1 86 1.7 SSE 13 24 7 13 1008.9 1008.8 11.2
06/07:30am 23.8 26.0 21.9 89 1.3 S 13 20 7 11 1008.8 1008.7 11.0
06/07:05am 23.3 25.2 21.4 89 1.3 SE 13 19 7 10 1008.6 1008.5 11.0
06/07:00am 23.3 25.2 21.4 89 1.3 SE 13 26 7 14 1008.6 1008.5 11.0
06/06:48am 23.0 22.6 20.9 88 1.4 SE 24 41 13 22 1008.6 1008.5 11.0
06/06:30am 24.4 25.7 21.7 85 1.8 SE 17 28 9 15 1007.9 1007.8 11.0
06/06:00am 23.5 24.6 21.2 87 1.5 SE 17 26 9 14 1007.6 1007.5 11.0
06/05:55am 23.5 24.4 21.6 89 1.3 SE 19 28 10 15 1007.6 1007.5 11.0
06/05:36am 23.2 22.9 21.1 88 1.4 ESE 24 41 13 22 1007.4 1007.3 11.0
06/05:30am 24.3 25.7 21.8 86 1.7 SE 17 26 9 14 1007.1 1007.0 10.8
06/05:00am 24.2 26.8 21.9 87 1.5 SE 11 20 6 11 1006.5 1006.4 10.8
06/04:30am 24.4 26.6 21.9 86 1.7 SE 13 24 7 13 1006.5 1006.4 10.8
06/04:00am 24.4 26.5 21.7 85 1.8 SSE 13 20 7 11 1006.5 1006.4 10.8
06/03:30am 24.7 26.5 21.2 81 2.3 SSE 13 19 7 10 1006.4 1006.3 10.8
06/03:00am 24.8 26.8 21.5 82 2.2 SE 13 24 7 13 1006.2 1006.1 10.8
06/02:30am 24.7 26.2 21.2 81 2.3 SE 15 24 8 13 1006.2 1006.1 10.8
06/02:00am 24.8 26.0 21.5 82 2.2 SSE 17 32 9 17 1006.3 1006.2 10.8
06/01:30am 24.6 25.6 21.1 81 2.3 SE 17 26 9 14 1006.5 1006.4 10.8
06/01:00am 24.6 27.1 21.7 84 1.9 SSE 11 19 6 10 1006.9 1006.8 10.8
06/12:30am 24.5 26.8 21.4 83 2.0 SSE 11 20 6 11 1007.3 1007.2 10.8
06/12:00am 24.4 26.9 21.7 85 1.8 SSE 11 17 6 9 1007.7 1007.6 10.8
 
Date/Time
EST
Temp
°C
App
Temp
°C
Dew
Point
Rel
Hum
%
Delta-T
°C
Wind Press
QNH
hPa
Press
MSL
hPa
Rain
since 9 am
mm
Dir
 
Spd
km/h
Gust
km/h
Spd
kts
Gust
kts
05/11:30pm 24.5 26.7 21.8 85 1.8 SE 13 20 7 11 1007.9 1007.8 10.8
05/11:00pm 24.0 26.6 21.9 88 1.4 SSE 11 20 6 11 1008.2 1008.1 10.8
05/10:30pm 24.2 27.0 22.3 89 1.3 SSE 11 24 6 13 1008.5 1008.4 10.8
05/10:00pm 24.0 25.9 22.1 89 1.3 SE 15 26 8 14 1008.7 1008.6 10.8
05/09:30pm 23.8 26.2 22.2 91 1.1 SSE 13 22 7 12 1008.5 1008.4 10.6
05/09:16pm 23.9 25.6 22.3 91 1.1 SE 17 24 9 13 1008.5 1008.4 10.6
05/09:00pm 24.1 26.6 22.5 91 1.1 SE 13 20 7 11 1008.4 1008.3 10.0
05/08:30pm 23.7 26.8 22.1 91 1.1 SSE 9 15 5 8 1008.2 1008.1 9.8
05/08:00pm 24.3 26.4 22.4 89 1.3 SSE 15 26 8 14 1008.1 1008.0 9.8
05/07:30pm 24.2 26.5 22.1 88 1.4 SSE 13 24 7 13 1007.7 1007.6 9.6
05/07:00pm 24.0 25.6 22.1 89 1.3 SE 17 20 9 11 1007.1 1007.0 9.6
05/06:38pm 23.7 24.6 22.0 90 1.1 SSE 20 32 11 17 1007.0 1006.9 9.4
05/06:30pm 23.8 24.6 21.7 88 1.4 SSE 20 32 11 17 1007.0 1006.9 9.4
05/06:15pm 24.4 27.1 22.8 91 1.1 SSE 13 17 7 9 1006.9 1006.8 8.8
05/06:00pm 24.4 27.0 22.7 90 1.1 SSE 13 17 7 9 1006.8 1006.7 7.8
05/05:47pm 24.2 26.4 22.6 91 1.1 SE 15 22 8 12 1006.5 1006.4 7.8
05/05:30pm 23.9 25.9 22.2 90 1.1 SE 15 20 8 11 1006.4 1006.3 7.6
05/05:29pm 24.0 26.4 22.3 90 1.1 SE 13 20 7 11 1006.3 1006.2 7.2
05/05:00pm 24.0 26.0 22.3 90 1.1 SSE 15 28 8 15 1006.2 1006.1 6.4
05/04:36pm 23.9 25.1 22.2 90 1.1 SSE 19 28 10 15 1006.1 1006.0 6.0
05/04:30pm 24.1 25.1 22.2 89 1.3 SSE 20 35 11 19 1006.0 1005.9 5.6
05/04:21pm 24.2 25.1 21.9 87 1.5 SSE 20 33 11 18 1006.0 1005.9 5.6
05/04:00pm 25.4 26.1 21.5 79 2.6 SE 20 30 11 16 1005.8 1005.7 4.8
05/03:30pm 25.2 27.3 22.5 85 1.8 SSE 15 24 8 13 1005.8 1005.7 4.8
05/03:00pm 24.2 25.5 22.3 89 1.3 SSE 19 28 10 15 1006.0 1005.9 4.8
05/02:34pm 24.3 26.6 22.7 91 1.1 SSE 15 26 8 14 1006.2 1006.1 4.8
05/02:30pm 24.3 26.2 22.7 91 1.1 SSE 17 26 9 14 1006.2 1006.1 4.8
05/02:13pm 23.8 24.9 21.9 89 1.3 SSE 19 35 10 19 1006.4 1006.3 3.4
05/02:00pm 25.3 27.6 23.4 89 1.3 SSE 17 26 9 14 1006.2 1006.1 1.8
05/01:37pm 24.1 26.4 22.7 92 0.9 SE 15 26 8 14 1006.3 1006.2 1.8
05/01:30pm 23.8 25.1 22.4 92 0.9 SE 19 32 10 17 1006.5 1006.4 1.8
05/01:16pm 23.7 24.5 21.4 87 1.5 ESE 19 35 10 19 1006.6 1006.5 1.6
05/01:00pm 24.2 25.0 21.3 84 1.9 SE 19 35 10 19 1006.5 1006.4 0.8
05/12:30pm 24.9 26.8 22.8 88 1.4 SSE 17 28 9 15 1006.6 1006.5 0.6
05/12:00pm 24.0 24.5 21.9 88 1.4 SSE 22 33 12 18 1006.9 1006.8 0.6
05/11:30am 25.2 26.4 22.1 83 2.1 S 19 28 10 15 1007.1 1007.0 0.2
05/11:00am 25.6 27.0 21.9 80 2.5 SSE 17 22 9 12 1007.1 1007.0 0.0
05/10:30am 25.4 26.8 21.9 81 2.3 S 17 28 9 15 1007.4 1007.3 0.0
05/10:00am 26.7 28.1 21.9 75 3.2 SE 17 26 9 14 1007.2 1007.1 0.0
05/09:30am 26.4 27.5 22.0 77 2.9 SE 19 37 10 20 1007.1 1007.0 0.0
05/09:00am 25.1 27.7 22.6 86 1.7 S 13 19 7 10 1007.0 1006.9 9.0
05/08:30am 24.9 28.0 22.8 88 1.4 S 11 17 6 9 1006.9 1006.8 9.0
05/08:00am 24.6 26.8 21.9 85 1.8 SSE 13 20 7 11 1006.7 1006.6 9.0
05/07:30am 24.0 25.1 21.9 88 1.4 SSE 19 33 10 18 1006.5 1006.4 9.0
05/07:23am 24.3 26.6 22.7 91 1.1 SSE 15 24 8 13 1006.5 1006.4 9.0
05/07:00am 23.8 27.0 22.4 92 0.9 S 9 11 5 6 1006.1 1006.0 8.6
05/06:55am 23.7 27.3 22.3 92 0.9 S 7 9 4 5 1006.1 1006.0 8.6
05/06:30am 23.7 26.4 22.1 91 1.1 SSW 11 17 6 9 1005.8 1005.7 8.2
05/06:00am 24.0 26.6 21.9 88 1.4 SSW 11 15 6 8 1005.4 1005.3 8.2
05/05:30am 24.7 26.2 19.8 74 3.2 SSE 11 17 6 9 1004.9 1004.8 8.2
05/05:00am 24.9 25.6 19.7 73 3.4 SE 15 24 8 13 1004.5 1004.4 8.2
05/04:30am 25.1 25.8 20.4 75 3.1 SSE 17 26 9 14 1004.3 1004.2 8.2
05/04:00am 24.8 26.5 20.9 79 2.6 SE 13 26 7 14 1004.2 1004.1 8.2
05/03:30am 24.2 26.4 21.1 83 2.0 SSE 11 17 6 9 1004.2 1004.1 8.2
05/03:00am 23.7 25.5 20.4 82 2.1 SSE 11 17 6 9 1004.2 1004.1 8.2
05/02:30am 23.2 25.4 20.5 85 1.8 SSE 9 13 5 7 1004.4 1004.3 8.2
05/02:00am 22.8 25.3 20.3 86 1.6 SSE 7 11 4 6 1004.6 1004.5 8.2
05/01:30am 23.2 25.1 19.8 81 2.2 SE 9 15 5 8 1004.8 1004.7 8.0
05/01:00am 23.0 23.7 19.6 81 2.2 SE 15 22 8 12 1004.8 1004.7 8.0
05/12:30am 23.0 23.7 19.6 81 2.2 SE 15 28 8 15 1005.1 1005.0 8.0
05/12:00am 22.2 22.3 18.4 79 2.4 SE 15 20 8 11 1005.8 1005.7 8.0
 
Date/Time
EST
Temp
°C
App
Temp
°C
Dew
Point
Rel
Hum
%
Delta-T
°C
Wind Press
QNH
hPa
Press
MSL
hPa
Rain
since 9 am
mm
Dir
 
Spd
km/h
Gust
km/h
Spd
kts
Gust
kts
04/11:30pm 22.3 22.6 19.7 85 1.7 SE 17 28 9 15 1006.3 1006.2 8.0
04/11:00pm 22.0 21.8 19.7 87 1.5 SE 20 30 11 16 1006.9 1006.8 7.8
04/10:30pm 22.1 22.0 20.0 88 1.3 SE 20 39 11 21 1007.1 1007.0 7.2
04/10:00pm 22.6 23.1 21.2 92 0.9 SE 20 35 11 19 1007.4 1007.3 6.2
04/09:30pm 22.4 22.8 20.7 90 1.1 SSE 19 32 10 17 1007.4 1007.3 4.4
04/09:00pm 22.8 23.6 21.3 91 1.0 SSE 19 32 10 17 1007.2 1007.1 3.2
04/08:30pm 23.3 22.8 20.8 86 1.6 SSE 24 37 13 20 1007.0 1006.9 2.2
04/08:09pm 23.8 24.8 21.7 88 1.4 SSE 19 35 10 19 1006.8 1006.7 1.6
04/08:00pm 23.7 24.0 21.6 88 1.4 SSE 22 35 12 19 1006.5 1006.4 1.6
04/07:41pm 23.8 24.0 22.1 90 1.1 SSE 24 37 13 20 1006.1 1006.0 1.6
04/07:30pm 23.8 23.6 22.1 90 1.1 SSE 26 43 14 23 1005.9 1005.8 1.6
04/07:13pm 24.3 25.2 22.6 90 1.1 SSE 22 35 12 19 1005.4 1005.3 1.6
04/07:00pm 24.7 25.3 22.8 89 1.3 SSE 24 43 13 23 1005.3 1005.2 1.6
04/06:30pm 25.4 26.4 22.9 86 1.7 SSE 22 33 12 18 1004.3 1004.2 1.6
04/06:06pm 25.0 26.2 22.5 86 1.7 SSE 20 30 11 16 1004.0 1003.9 1.6
04/06:01pm 25.1 26.4 22.6 86 1.7 SSE 20 37 11 20 1004.0 1003.9 1.6
04/06:00pm 25.0 26.2 22.5 86 1.7 SSE 20 37 11 20 1004.0 1003.9 1.6
04/05:30pm 25.2 25.7 22.7 86 1.7 SSE 24 39 13 21 1003.8 1003.7 1.6
04/05:24pm 25.4 26.5 23.1 87 1.6 SSE 22 39 12 21 1003.7 1003.6 1.6
04/05:13pm 25.3 26.4 23.0 87 1.6 SSE 22 41 12 22 1003.1 1003.0 1.6
04/05:01pm 25.5 26.2 23.6 89 1.3 SSE 26 41 14 22 1002.9 1002.8 1.6
04/05:00pm 25.6 26.3 23.7 89 1.3 SSE 26 41 14 22 1002.9 1002.8 1.6
04/04:57pm 25.5 25.8 23.6 89 1.3 SSE 28 46 15 25 1002.8 1002.7 1.6
04/04:41pm 25.9 27.6 24.1 90 1.2 SE 22 39 12 21 1002.9 1002.8 1.0
04/04:33pm 26.6 28.9 24.4 88 1.5 SE 20 30 11 16 1002.7 1002.6 0.8
04/04:30pm 26.6 28.9 24.4 88 1.5 SE 20 30 11 16 1002.7 1002.6 0.6
04/04:21pm 26.6 29.1 24.4 88 1.5 SE 19 30 10 16 1002.5 1002.4 0.6
04/04:05pm 26.9 29.4 24.5 87 1.7 SE 19 28 10 15 1002.3 1002.2 0.2
04/04:00pm 27.1 29.4 24.4 85 1.9 SSE 20 32 11 17 1002.2 1002.1 0.0
04/03:30pm 28.0 29.1 23.6 77 3.0 SSE 24 41 13 22 1002.1 1002.0 0.0
04/03:00pm 30.1 32.1 25.2 75 3.5 SSE 24 35 13 19 1001.9 1001.8 0.0
04/02:30pm 28.9 31.6 25.1 80 2.7 SE 20 32 11 17 1002.1 1002.0 0.0
04/02:00pm 29.3 31.8 25.3 79 2.8 SSE 22 35 12 19 1002.3 1002.2 0.0
04/01:30pm 32.2 35.1 24.5 64 5.4 SE 17 28 9 15 1002.4 1002.3 0.0
04/01:00pm 31.9 35.8 25.5 69 4.6 SE 15 22 8 12 1002.5 1002.4 0.0
04/12:30pm 32.0 35.1 24.8 65 5.1 E 17 24 9 13 1002.9 1002.8 0.0
04/12:00pm 32.0 36.2 24.8 65 5.1 SE 11 17 6 9 1003.1 1003.0 0.0
04/11:30am 32.4 35.3 23.9 61 5.9 SSW 15 24 8 13 1003.6 1003.5 0.0
04/11:00am 31.3 34.6 23.9 64 5.2 S 13 20 7 11 1004.0 1003.9 0.0
04/10:30am 30.7 34.8 24.6 70 4.3 SSW 11 19 6 10 1003.9 1003.8 0.0
04/10:00am 30.8 34.8 25.6 74 3.7 SE 15 22 8 12 1003.6 1003.5 0.0
04/09:30am 30.4 34.3 25.5 75 3.5 SE 15 20 8 11 1003.5 1003.4 0.0
04/09:00am 30.0 32.9 23.9 70 4.2 SSE 15 20 8 11 1003.4 1003.3 13.0
04/08:30am 28.9 31.9 24.0 75 3.4 SSW 15 20 8 11 1003.4 1003.3 13.0
04/08:00am 28.3 32.0 23.9 77 3.0 SSW 11 20 6 11 1003.2 1003.1 13.0
04/07:30am 26.5 30.6 23.2 82 2.2 WSW 7 13 4 7 1003.4 1003.3 13.0
04/07:00am 25.6 29.0 22.7 84 2.0 WSW 9 15 5 8 1003.2 1003.1 13.0
04/06:54am 25.4 28.7 22.5 84 2.0 WSW 9 15 5 8 1003.2 1003.1 13.0
04/06:30am 24.9 28.1 23.0 89 1.3 WSW 11 17 6 9 1002.8 1002.7 13.0
04/06:00am 24.8 28.6 23.4 92 1.0 W 9 13 5 7 1002.6 1002.5 13.0
04/05:30am 24.6 28.5 23.0 91 1.1 SSW 7 9 4 5 1002.1 1002.0 13.0
04/05:26am 24.5 28.4 22.9 91 1.1 SW 7 9 4 5 1002.1 1002.0 13.0
04/05:00am 24.6 28.5 22.5 88 1.4 SW 6 7 3 4 1001.9 1001.8 13.0

Other Formats:

Comma delimited format used in spreadsheet applications
http://www.bom.gov.au/fwo/IDQ60801/IDQ60801.95565.axf

JavaScript Object Notation format (JSON) in row-major order
http://www.bom.gov.au/fwo/IDQ60801/IDQ60801.95565.json